createdAt,value
2017-09-01T00:01:15.672Z,0
2017-09-01T00:02:37.520Z,0
2017-09-01T00:03:59.013Z,0
2017-09-01T00:05:21.460Z,0
2017-09-01T00:06:42.969Z,0
2017-09-01T00:08:04.790Z,0
2017-09-01T00:09:26.942Z,0
2017-09-01T00:10:48.792Z,0
2017-09-01T00:12:10.736Z,0
2017-09-01T00:13:32.269Z,0
2017-09-01T00:14:54.452Z,0
2017-09-01T00:16:16.522Z,0
2017-09-01T00:17:38.028Z,0
2017-09-01T00:19:00.492Z,0
2017-09-01T00:20:22.962Z,0
2017-09-01T00:21:45.362Z,0
2017-09-01T00:23:07.822Z,0
2017-09-01T00:24:29.016Z,0
2017-09-01T00:25:51.537Z,0
2017-09-01T00:27:13.661Z,0
2017-09-01T00:28:35.833Z,0
2017-09-01T00:29:57.656Z,0
2017-09-01T00:31:19.492Z,0
2017-09-01T00:32:42.089Z,0
2017-09-01T00:34:04.554Z,0
2017-09-01T00:35:26.712Z,0
2017-09-01T00:36:48.572Z,0
2017-09-01T00:38:10.693Z,0
2017-09-01T00:39:32.841Z,0
2017-09-01T00:40:54.654Z,0
2017-09-01T00:42:16.893Z,0
2017-09-01T00:43:39.353Z,0
2017-09-01T00:45:01.506Z,0
2017-09-01T00:46:23.416Z,0
2017-09-01T00:47:45.894Z,0
2017-09-01T00:49:08.008Z,0
2017-09-01T00:50:30.475Z,0
2017-09-01T00:51:52.322Z,0
2017-09-01T00:53:14.162Z,0
2017-09-01T00:54:36.957Z,0
2017-09-01T00:55:59.093Z,0
2017-09-01T00:57:21.573Z,0
2017-09-01T00:58:43.394Z,0
2017-09-01T01:00:05.763Z,0
2017-09-01T01:01:27.943Z,0
2017-09-01T01:02:50.402Z,0
2017-09-01T01:04:11.903Z,0
2017-09-01T01:05:33.659Z,0
2017-09-01T01:06:55.863Z,0
2017-09-01T01:08:17.038Z,0
2017-09-01T01:09:38.209Z,0
2017-09-01T01:11:00.348Z,0
2017-09-01T01:12:22.173Z,0
2017-09-01T01:13:43.693Z,0
2017-09-01T01:15:05.662Z,0
2017-09-01T01:16:27.782Z,0
2017-09-01T01:17:49.301Z,0
2017-09-01T01:19:10.813Z,0
2017-09-01T01:20:32.752Z,0
2017-09-01T01:21:54.965Z,0
2017-09-01T01:23:17.110Z,0
2017-09-01T01:24:39.264Z,0
2017-09-01T01:26:01.093Z,0
2017-09-01T01:27:23.608Z,0
2017-09-01T01:28:45.155Z,0
2017-09-01T01:30:06.972Z,0
2017-09-01T01:31:28.821Z,0
2017-09-01T01:32:51.401Z,0
2017-09-01T01:34:13.543Z,0
2017-09-01T01:35:35.382Z,0
2017-09-01T01:36:57.831Z,0
2017-09-01T01:38:19.631Z,0
2017-09-01T01:39:41.523Z,0
2017-09-01T01:41:03.118Z,0
2017-09-01T01:42:24.942Z,0
2017-09-01T01:43:47.032Z,0
2017-09-01T01:45:08.240Z,0
2017-09-01T01:46:30.072Z,0
2017-09-01T01:47:52.418Z,0
2017-09-01T01:49:15.133Z,0
2017-09-01T01:50:37.702Z,0
2017-09-01T01:51:59.291Z,0
2017-09-01T01:53:21.448Z,0
2017-09-01T01:54:42.812Z,0
2017-09-01T01:56:04.643Z,0
2017-09-01T01:57:26.164Z,0
2017-09-01T01:58:48.682Z,0
2017-09-01T02:00:11.193Z,0
2017-09-01T02:01:33.476Z,0
2017-09-01T02:02:54.973Z,0
2017-09-01T02:04:16.795Z,0
2017-09-01T02:05:39.513Z,0
2017-09-01T02:07:01.744Z,0
2017-09-01T02:08:24.313Z,0
2017-09-01T02:09:46.133Z,0
2017-09-01T02:11:08.203Z,0
2017-09-01T02:12:30.765Z,0
2017-09-01T02:13:52.890Z,0
2017-09-01T02:15:14.052Z,0
2017-09-01T02:16:36.823Z,0
2017-09-01T02:17:58.341Z,0
2017-09-01T02:19:20.951Z,0
2017-09-01T02:20:42.793Z,0
2017-09-01T02:22:04.864Z,0
2017-09-01T02:23:26.683Z,0
2017-09-01T02:24:48.834Z,0
2017-09-01T02:26:10.992Z,0
2017-09-01T02:27:33.911Z,0
2017-09-01T02:28:55.740Z,0
2017-09-01T02:30:16.938Z,0
2017-09-01T02:31:38.764Z,0
2017-09-01T02:33:01.496Z,0
2017-09-01T02:34:23.097Z,0
2017-09-01T02:35:44.933Z,0
2017-09-01T02:37:07.104Z,0
2017-09-01T02:38:29.603Z,0
2017-09-01T02:39:50.466Z,0
2017-09-01T02:41:12.969Z,0
2017-09-01T02:42:34.783Z,0
2017-09-01T02:43:57.033Z,0
2017-09-01T02:45:19.514Z,0
2017-09-01T02:46:41.483Z,0
2017-09-01T02:48:03.397Z,0
2017-09-01T02:49:25.876Z,0
2017-09-01T02:50:48.023Z,0
2017-09-01T02:52:09.903Z,0
2017-09-01T02:53:31.403Z,0
2017-09-01T02:54:53.521Z,0
2017-09-01T02:56:15.663Z,0
2017-09-01T02:57:38.087Z,0
2017-09-01T02:58:59.592Z,0
2017-09-01T03:00:21.934Z,0
2017-09-01T03:01:44.088Z,0
2017-09-01T03:03:06.365Z,0
2017-09-01T03:04:28.634Z,0
2017-09-01T03:05:50.692Z,0
2017-09-01T03:07:12.854Z,0
2017-09-01T03:08:34.684Z,0
2017-09-01T03:09:56.554Z,0
2017-09-01T03:11:19.322Z,0
2017-09-01T03:12:41.215Z,0
2017-09-01T03:14:03.398Z,0
2017-09-01T03:15:25.213Z,0
2017-09-01T03:16:47.653Z,0
2017-09-01T03:18:09.213Z,0
2017-09-01T03:19:31.044Z,0
2017-09-01T03:20:52.986Z,0
2017-09-01T03:22:15.113Z,0
2017-09-01T03:23:36.642Z,0
2017-09-01T03:24:59.232Z,0
2017-09-01T03:26:20.513Z,0
2017-09-01T03:27:42.920Z,0
2017-09-01T03:29:04.423Z,0
2017-09-01T03:30:25.953Z,0
2017-09-01T03:31:48.183Z,0
2017-09-01T03:33:10.376Z,0
2017-09-01T03:34:32.522Z,0
2017-09-01T03:35:54.654Z,0
2017-09-01T03:37:17.373Z,0
2017-09-01T03:38:38.844Z,0
2017-09-01T03:40:00.750Z,0
2017-09-01T03:41:22.594Z,0
2017-09-01T03:42:44.443Z,0
2017-09-01T03:44:06.534Z,0
2017-09-01T03:45:28.365Z,0
2017-09-01T03:46:50.514Z,0
2017-09-01T03:48:13.023Z,0
2017-09-01T03:49:35.257Z,0
2017-09-01T03:50:56.763Z,0
2017-09-01T03:52:18.592Z,0
2017-09-01T03:53:40.756Z,0
2017-09-01T03:55:02.568Z,0
2017-09-01T03:56:24.732Z,0
2017-09-01T03:57:46.572Z,0
2017-09-01T03:59:08.402Z,0
2017-09-01T04:00:30.563Z,0
2017-09-01T04:01:52.404Z,0
2017-09-01T04:03:14.615Z,0
2017-09-01T04:04:36.769Z,0
2017-09-01T04:05:59.275Z,0
2017-09-01T04:07:20.453Z,0
2017-09-01T04:08:42.603Z,0
2017-09-01T04:10:04.445Z,0
2017-09-01T04:11:26.584Z,0
2017-09-01T04:12:48.829Z,0
2017-09-01T04:14:10.684Z,0
2017-09-01T04:15:32.183Z,0
2017-09-01T04:16:54.700Z,0
2017-09-01T04:18:16.524Z,0
2017-09-01T04:19:38.032Z,0
2017-09-01T04:20:59.855Z,0
2017-09-01T04:22:22.304Z,0
2017-09-01T04:23:44.450Z,0
2017-09-01T04:25:06.309Z,0
2017-09-01T04:26:28.146Z,0
2017-09-01T04:27:50.475Z,0
2017-09-01T04:29:12.613Z,0
2017-09-01T04:30:33.807Z,0
2017-09-01T04:31:55.956Z,5
2017-09-01T04:33:18.471Z,5
2017-09-01T04:34:40.301Z,5
2017-09-01T04:36:02.920Z,5
2017-09-01T04:37:25.082Z,5
2017-09-01T04:38:47.973Z,10
2017-09-01T04:40:10.203Z,10
2017-09-01T04:41:32.374Z,10
2017-09-01T04:42:53.865Z,15
2017-09-01T04:44:16.353Z,15
2017-09-01T04:45:38.524Z,15
2017-09-01T04:47:00.334Z,20
2017-09-01T04:48:22.481Z,20
2017-09-01T04:49:44.654Z,20
2017-09-01T04:51:06.155Z,25
2017-09-01T04:52:27.684Z,25
2017-09-01T04:53:49.284Z,30
2017-09-01T04:55:11.694Z,30
2017-09-01T04:56:33.554Z,30
2017-09-01T04:57:55.387Z,35
2017-09-01T04:59:17.941Z,35
2017-09-01T05:00:40.651Z,40
2017-09-01T05:02:02.797Z,40
2017-09-01T05:03:24.665Z,45
2017-09-01T05:04:46.840Z,45
2017-09-01T05:06:08.924Z,50
2017-09-01T05:07:30.753Z,50
2017-09-01T05:08:52.267Z,50
2017-09-01T05:10:14.456Z,55
2017-09-01T05:11:36.914Z,55
2017-09-01T05:12:58.472Z,60
2017-09-01T05:14:20.647Z,60
2017-09-01T05:15:42.779Z,65
2017-09-01T05:17:04.986Z,70
2017-09-01T05:18:26.530Z,70
2017-09-01T05:19:48.351Z,75
2017-09-01T05:21:10.165Z,75
2017-09-01T05:22:32.553Z,75
2017-09-01T05:23:54.708Z,80
2017-09-01T05:25:16.624Z,80
2017-09-01T05:26:38.127Z,85
2017-09-01T05:28:15.171Z,85
2017-09-01T05:29:37.000Z,90
2017-09-01T05:30:58.947Z,90
2017-09-01T05:32:21.093Z,95
2017-09-01T05:33:42.947Z,95
2017-09-01T05:35:04.754Z,100
2017-09-01T05:36:26.564Z,105
2017-09-01T05:37:49.101Z,115
2017-09-01T05:39:11.819Z,120
2017-09-01T05:40:33.339Z,130
2017-09-01T05:41:55.373Z,180
2017-09-01T05:43:17.553Z,265
2017-09-01T05:44:39.410Z,285
2017-09-01T05:46:00.904Z,295
2017-09-01T05:47:23.055Z,290
2017-09-01T05:48:45.523Z,290
2017-09-01T05:50:08.015Z,300
2017-09-01T05:51:30.178Z,300
2017-09-01T05:52:51.994Z,300
2017-09-01T05:54:13.181Z,300
2017-09-01T05:55:35.243Z,295
2017-09-01T05:56:57.526Z,300
2017-09-01T05:58:20.008Z,305
2017-09-01T05:59:41.812Z,300
2017-09-01T06:01:04.049Z,305
2017-09-01T06:02:26.536Z,305
2017-09-01T06:03:48.994Z,305
2017-09-01T06:05:11.161Z,310
2017-09-01T06:06:33.612Z,305
2017-09-01T06:07:56.114Z,310
2017-09-01T06:09:17.931Z,310
2017-09-01T06:10:39.834Z,310
2017-09-01T06:12:02.287Z,310
2017-09-01T06:13:24.131Z,310
2017-09-01T06:14:45.725Z,310
2017-09-01T06:16:07.881Z,305
2017-09-01T06:17:30.292Z,305
2017-09-01T06:18:52.463Z,310
2017-09-01T06:20:13.985Z,305
2017-09-01T06:21:35.829Z,305
2017-09-01T06:22:58.332Z,305
2017-09-01T06:24:20.493Z,305
2017-09-01T06:25:42.400Z,305
2017-09-01T06:27:03.924Z,305
2017-09-01T06:28:26.073Z,310
2017-09-01T06:29:47.592Z,310
2017-09-01T06:31:09.744Z,310
2017-09-01T06:32:31.585Z,315
2017-09-01T06:33:53.682Z,315
2017-09-01T06:35:16.155Z,320
2017-09-01T06:36:37.996Z,325
2017-09-01T06:37:59.845Z,325
2017-09-01T06:39:22.322Z,330
2017-09-01T06:40:44.228Z,330
2017-09-01T06:42:06.404Z,335
2017-09-01T06:43:28.254Z,335
2017-09-01T06:44:50.404Z,340
2017-09-01T06:46:12.264Z,345
2017-09-01T06:47:34.113Z,355
2017-09-01T06:48:55.631Z,350
2017-09-01T06:50:17.724Z,355
2017-09-01T06:51:39.255Z,355
2017-09-01T06:53:01.419Z,355
2017-09-01T06:54:23.263Z,355
2017-09-01T06:55:45.514Z,355
2017-09-01T06:57:07.344Z,355
2017-09-01T06:58:29.183Z,355
2017-09-01T06:59:50.413Z,355
2017-09-01T07:01:12.643Z,360
2017-09-01T07:02:34.839Z,360
2017-09-01T07:03:57.463Z,360
2017-09-01T07:05:19.304Z,360
2017-09-01T07:06:41.443Z,355
2017-09-01T07:08:04.014Z,360
2017-09-01T07:09:26.164Z,360
2017-09-01T07:10:48.102Z,355
2017-09-01T07:12:10.904Z,355
2017-09-01T07:13:33.381Z,360
2017-09-01T07:14:54.900Z,370
2017-09-01T07:16:16.453Z,370
2017-09-01T07:17:40.782Z,375
2017-09-01T07:19:02.928Z,365
2017-09-01T07:20:24.764Z,355
2017-09-01T07:21:46.615Z,335
2017-09-01T07:23:08.694Z,335
2017-09-01T07:24:31.175Z,335
2017-09-01T07:25:53.011Z,325
2017-09-01T07:27:14.893Z,320
2017-09-01T07:28:36.726Z,315
2017-09-01T07:29:58.981Z,310
2017-09-01T07:31:21.453Z,305
2017-09-01T07:32:43.665Z,310
2017-09-01T07:34:06.123Z,305
2017-09-01T07:35:28.293Z,305
2017-09-01T07:36:50.126Z,300
2017-09-01T07:38:11.393Z,295
2017-09-01T07:39:33.981Z,290
2017-09-01T07:40:55.868Z,290
2017-09-01T07:42:18.118Z,285
2017-09-01T07:43:39.954Z,285
2017-09-01T07:45:01.893Z,285
2017-09-01T07:46:23.408Z,280
2017-09-01T07:47:45.268Z,270
2017-09-01T07:49:07.095Z,245
2017-09-01T07:50:29.273Z,210
2017-09-01T07:51:51.134Z,190
2017-09-01T07:53:13.603Z,185
2017-09-01T07:54:36.096Z,180
2017-09-01T07:55:58.603Z,180
2017-09-01T07:57:20.451Z,175
2017-09-01T07:58:42.643Z,175
2017-09-01T08:00:04.474Z,175
2017-09-01T08:01:27.320Z,175
2017-09-01T08:02:49.266Z,175
2017-09-01T08:04:11.773Z,170
2017-09-01T08:05:33.952Z,175
2017-09-01T08:06:56.783Z,180
2017-09-01T08:08:18.302Z,180
2017-09-01T08:09:40.144Z,180
2017-09-01T08:11:02.308Z,180
2017-09-01T08:12:24.303Z,180
2017-09-01T08:13:46.522Z,180
2017-09-01T08:15:08.344Z,180
2017-09-01T08:16:30.624Z,175
2017-09-01T08:17:53.137Z,175
2017-09-01T08:19:15.282Z,175
2017-09-01T08:20:36.526Z,175
2017-09-01T08:21:58.714Z,175
2017-09-01T08:23:21.224Z,175
2017-09-01T08:24:43.406Z,175
2017-09-01T08:26:05.598Z,175
2017-09-01T08:27:28.093Z,180
2017-09-01T08:28:50.615Z,180
2017-09-01T08:30:13.007Z,180
2017-09-01T08:31:35.502Z,180
2017-09-01T08:32:57.344Z,180
2017-09-01T08:34:19.514Z,180
2017-09-01T08:35:41.674Z,180
2017-09-01T08:37:03.864Z,180
2017-09-01T08:38:26.366Z,180
2017-09-01T08:39:48.805Z,175
2017-09-01T08:41:10.664Z,175
2017-09-01T08:42:32.515Z,175
2017-09-01T08:43:54.994Z,175
2017-09-01T08:45:17.782Z,175
2017-09-01T08:46:39.937Z,175
2017-09-01T08:48:02.093Z,180
2017-09-01T08:49:24.444Z,175
2017-09-01T08:50:46.645Z,180
2017-09-01T08:52:08.823Z,180
2017-09-01T08:53:30.987Z,180
2017-09-01T08:54:53.161Z,180
2017-09-01T08:56:15.276Z,185
2017-09-01T08:57:37.113Z,180
2017-09-01T08:58:59.594Z,185
2017-09-01T09:00:21.134Z,185
2017-09-01T09:01:43.975Z,175
2017-09-01T09:03:06.127Z,160
2017-09-01T09:04:28.593Z,180
2017-09-01T09:05:50.434Z,190
2017-09-01T09:07:12.934Z,195
2017-09-01T09:08:35.085Z,195
2017-09-01T09:09:57.620Z,185
2017-09-01T09:11:19.468Z,190
2017-09-01T09:12:41.010Z,200
2017-09-01T09:14:03.217Z,200
2017-09-01T09:15:25.145Z,215
2017-09-01T09:16:46.986Z,210
2017-09-01T09:18:09.318Z,225
2017-09-01T09:19:31.494Z,215
2017-09-01T09:20:53.654Z,210
2017-09-01T09:22:15.934Z,220
2017-09-01T09:23:37.800Z,220
2017-09-01T09:24:59.948Z,230
2017-09-01T09:26:21.776Z,245
2017-09-01T09:27:43.914Z,265
2017-09-01T09:29:05.725Z,260
2017-09-01T09:30:27.565Z,250
2017-09-01T09:31:49.655Z,240
2017-09-01T09:33:11.474Z,245
2017-09-01T09:34:33.324Z,255
2017-09-01T09:35:55.504Z,270
2017-09-01T09:37:17.348Z,285
2017-09-01T09:38:39.496Z,300
2017-09-01T09:40:02.015Z,295
2017-09-01T09:41:24.166Z,295
2017-09-01T09:42:45.696Z,300
2017-09-01T09:44:07.591Z,305
2017-09-01T09:45:30.095Z,315
2017-09-01T09:46:52.303Z,320
2017-09-01T09:48:13.815Z,320
2017-09-01T09:49:35.655Z,310
2017-09-01T09:50:57.894Z,315
2017-09-01T09:52:20.097Z,320
2017-09-01T09:53:42.616Z,325
2017-09-01T09:55:04.924Z,335
2017-09-01T09:56:27.124Z,335
2017-09-01T09:57:48.674Z,325
2017-09-01T09:59:10.530Z,340
2017-09-01T10:00:33.104Z,335
2017-09-01T10:01:55.485Z,335
2017-09-01T10:03:18.097Z,345
2017-09-01T10:04:40.266Z,340
2017-09-01T10:06:02.194Z,330
2017-09-01T10:07:25.087Z,315
2017-09-01T10:08:46.909Z,315
2017-09-01T10:10:09.442Z,335
2017-09-01T10:11:31.914Z,355
2017-09-01T10:13:08.728Z,355
2017-09-01T10:14:31.110Z,355
2017-09-01T10:15:53.297Z,360
2017-09-01T10:17:15.791Z,375
2017-09-01T10:18:38.214Z,370
2017-09-01T10:20:00.093Z,360
2017-09-01T10:21:21.593Z,350
2017-09-01T10:22:43.437Z,335
2017-09-01T10:24:05.840Z,315
2017-09-01T10:25:27.994Z,295
2017-09-01T10:26:49.922Z,300
2017-09-01T10:28:11.446Z,305
2017-09-01T10:29:33.584Z,315
2017-09-01T10:30:56.084Z,305
2017-09-01T10:32:18.577Z,310
2017-09-01T10:33:41.056Z,330
2017-09-01T10:35:03.553Z,360
2017-09-01T10:36:25.064Z,350
2017-09-01T10:37:47.270Z,340
2017-09-01T10:39:09.109Z,320
2017-09-01T10:40:30.934Z,300
2017-09-01T10:41:53.134Z,290
2017-09-01T10:43:15.064Z,295
2017-09-01T10:44:36.913Z,310
2017-09-01T10:45:59.404Z,325
2017-09-01T10:47:22.005Z,350
2017-09-01T10:48:44.344Z,350
2017-09-01T10:50:06.837Z,340
2017-09-01T10:51:29.363Z,325
2017-09-01T10:52:51.892Z,325
2017-09-01T10:54:13.755Z,320
2017-09-01T10:55:36.294Z,325
2017-09-01T10:56:58.682Z,340
2017-09-01T10:58:20.522Z,365
2017-09-01T10:59:42.363Z,390
2017-09-01T11:01:03.886Z,400
2017-09-01T11:02:26.305Z,385
2017-09-01T11:03:48.455Z,380
2017-09-01T11:05:10.635Z,360
2017-09-01T11:06:32.820Z,355
2017-09-01T11:07:54.982Z,375
2017-09-01T11:09:17.187Z,390
2017-09-01T11:10:39.344Z,400
2017-09-01T11:12:01.822Z,385
2017-09-01T11:13:24.355Z,355
2017-09-01T11:14:46.542Z,360
2017-09-01T11:16:08.713Z,375
2017-09-01T11:17:30.883Z,370
2017-09-01T11:18:53.722Z,365
2017-09-01T11:20:15.554Z,350
2017-09-01T11:21:37.714Z,350
2017-09-01T11:23:00.194Z,345
2017-09-01T11:24:23.048Z,335
2017-09-01T11:25:45.283Z,325
2017-09-01T11:27:07.153Z,310
2017-09-01T11:28:29.632Z,285
2017-09-01T11:29:52.161Z,280
2017-09-01T11:31:14.012Z,285
2017-09-01T11:32:36.194Z,300
2017-09-01T11:33:58.032Z,310
2017-09-01T11:35:20.133Z,325
2017-09-01T11:36:42.423Z,325
2017-09-01T11:38:04.371Z,315
2017-09-01T11:39:26.274Z,345
2017-09-01T11:40:48.793Z,340
2017-09-01T11:42:10.653Z,345
2017-09-01T11:43:32.821Z,325
2017-09-01T11:44:55.426Z,325
2017-09-01T11:46:17.963Z,320
2017-09-01T11:47:40.533Z,320
2017-09-01T11:49:02.365Z,300
2017-09-01T11:50:24.865Z,305
2017-09-01T11:51:47.053Z,295
2017-09-01T11:53:09.242Z,300
2017-09-01T11:54:31.875Z,305
2017-09-01T11:55:53.722Z,305
2017-09-01T11:57:16.022Z,310
2017-09-01T11:58:37.903Z,310
2017-09-01T12:00:00.492Z,330
2017-09-01T12:01:22.062Z,360
2017-09-01T12:02:44.842Z,380
2017-09-01T12:04:07.031Z,410
2017-09-01T12:05:28.530Z,405
2017-09-01T12:06:51.049Z,415
2017-09-01T12:08:13.218Z,400
2017-09-01T12:09:34.767Z,390
2017-09-01T12:10:56.945Z,385
2017-09-01T12:12:19.226Z,380
2017-09-01T12:13:42.044Z,365
2017-09-01T12:15:04.204Z,355
2017-09-01T12:16:26.362Z,355
2017-09-01T12:17:48.533Z,360
2017-09-01T12:19:10.623Z,355
2017-09-01T12:20:32.785Z,345
2017-09-01T12:21:55.085Z,340
2017-09-01T12:23:17.573Z,330
2017-09-01T12:24:40.321Z,330
2017-09-01T12:26:02.667Z,340
2017-09-01T12:27:25.153Z,350
2017-09-01T12:28:47.004Z,340
2017-09-01T12:30:09.525Z,365
2017-09-01T12:31:31.381Z,385
2017-09-01T12:32:53.618Z,375
2017-09-01T12:34:15.995Z,355
2017-09-01T12:35:38.213Z,335
2017-09-01T12:37:00.363Z,315
2017-09-01T12:38:22.879Z,305
2017-09-01T12:39:45.057Z,290
2017-09-01T12:41:07.821Z,320
2017-09-01T12:42:30.483Z,345
2017-09-01T12:43:52.986Z,355
2017-09-01T12:45:15.164Z,355
2017-09-01T12:46:37.844Z,335
2017-09-01T12:48:00.354Z,315
2017-09-01T12:49:22.527Z,325
2017-09-01T12:50:45.021Z,310
2017-09-01T12:52:07.467Z,325
2017-09-01T12:53:29.102Z,340
2017-09-01T12:54:50.983Z,350
2017-09-01T12:56:13.162Z,340
2017-09-01T12:57:36.172Z,335
2017-09-01T12:58:57.733Z,305
2017-09-01T13:00:19.714Z,305
2017-09-01T13:01:42.195Z,305
2017-09-01T13:03:05.027Z,285
2017-09-01T13:04:27.213Z,265
2017-09-01T13:05:49.723Z,255
2017-09-01T13:07:11.900Z,260
2017-09-01T13:08:34.405Z,275
2017-09-01T13:09:56.592Z,290
2017-09-01T13:11:18.754Z,300
2017-09-01T13:12:41.103Z,325
2017-09-01T13:14:03.940Z,345
2017-09-01T13:15:25.943Z,350
2017-09-01T13:16:48.159Z,340
2017-09-01T13:18:10.014Z,320
2017-09-01T13:19:32.683Z,300
2017-09-01T13:20:55.155Z,290
2017-09-01T13:22:17.741Z,275
2017-09-01T13:23:39.913Z,265
2017-09-01T13:25:02.452Z,245
2017-09-01T13:26:24.642Z,235
2017-09-01T13:27:47.154Z,225
2017-09-01T13:29:09.645Z,225
2017-09-01T13:30:32.496Z,240
2017-09-01T13:31:54.993Z,255
2017-09-01T13:33:17.524Z,265
2017-09-01T13:34:40.063Z,290
2017-09-01T13:36:03.021Z,320
2017-09-01T13:37:24.883Z,315
2017-09-01T13:38:47.363Z,315
2017-09-01T13:40:09.545Z,310
2017-09-01T13:41:32.413Z,305
2017-09-01T13:42:54.282Z,295
2017-09-01T13:44:16.456Z,290
2017-09-01T13:45:38.322Z,285
2017-09-01T13:47:00.983Z,270
2017-09-01T13:48:23.146Z,255
2017-09-01T13:49:45.393Z,255
2017-09-01T13:51:07.630Z,255
2017-09-01T13:52:30.136Z,245
2017-09-01T13:53:52.304Z,220
2017-09-01T13:55:14.515Z,215
2017-09-01T13:56:37.196Z,225
2017-09-01T13:57:59.832Z,225
2017-09-01T13:59:22.014Z,235
2017-09-01T14:00:44.539Z,245
2017-09-01T14:02:07.024Z,235
2017-09-01T14:03:29.433Z,230
2017-09-01T14:04:51.975Z,230
2017-09-01T14:06:13.824Z,215
2017-09-01T14:07:36.312Z,220
2017-09-01T14:08:58.783Z,225
2017-09-01T14:10:21.424Z,225
2017-09-01T14:11:43.911Z,230
2017-09-01T14:13:06.336Z,240
2017-09-01T14:14:28.565Z,255
2017-09-01T14:15:50.734Z,270
2017-09-01T14:17:13.228Z,285
2017-09-01T14:18:35.723Z,280
2017-09-01T14:19:58.525Z,280
2017-09-01T14:21:20.384Z,280
2017-09-01T14:22:42.589Z,285
2017-09-01T14:24:04.463Z,300
2017-09-01T14:25:27.334Z,295
2017-09-01T14:26:49.484Z,280
2017-09-01T14:28:12.072Z,260
2017-09-01T14:29:34.552Z,260
2017-09-01T14:30:57.093Z,265
2017-09-01T14:32:19.611Z,260
2017-09-01T14:33:41.565Z,260
2017-09-01T14:35:03.438Z,265
2017-09-01T14:36:25.634Z,275
2017-09-01T14:37:48.156Z,290
2017-09-01T14:39:10.320Z,300
2017-09-01T14:40:32.821Z,295
2017-09-01T14:41:55.405Z,305
2017-09-01T14:43:17.593Z,305
2017-09-01T14:44:39.864Z,295
2017-09-01T14:46:02.032Z,285
2017-09-01T14:47:24.826Z,300
2017-09-01T14:48:47.013Z,310
2017-09-01T14:50:08.845Z,310
2017-09-01T14:51:30.741Z,295
2017-09-01T14:52:53.323Z,260
2017-09-01T14:54:15.510Z,245
2017-09-01T14:55:37.366Z,235
2017-09-01T14:56:59.856Z,240
2017-09-01T14:58:22.692Z,250
2017-09-01T14:59:44.563Z,255
2017-09-01T15:01:06.441Z,245
2017-09-01T15:02:28.592Z,235
2017-09-01T15:03:50.790Z,230
2017-09-01T15:05:13.330Z,220
2017-09-01T15:06:35.498Z,215
2017-09-01T15:07:57.726Z,210
2017-09-01T15:09:20.153Z,205
2017-09-01T15:10:42.734Z,200
2017-09-01T15:12:05.203Z,190
2017-09-01T15:13:27.394Z,185
2017-09-01T15:14:49.862Z,185
2017-09-01T15:16:12.485Z,185
2017-09-01T15:17:34.663Z,190
2017-09-01T15:18:57.168Z,190
2017-09-01T15:20:19.286Z,180
2017-09-01T15:21:41.465Z,185
2017-09-01T15:23:03.630Z,190
2017-09-01T15:24:25.944Z,190
2017-09-01T15:25:48.141Z,185
2017-09-01T15:27:10.631Z,190
2017-09-01T15:28:32.881Z,185
2017-09-01T15:29:54.913Z,185
2017-09-01T15:31:17.554Z,185
2017-09-01T15:32:39.713Z,185
2017-09-01T15:34:02.055Z,190
2017-09-01T15:35:24.553Z,185
2017-09-01T15:36:47.003Z,185
2017-09-01T15:38:09.520Z,185
2017-09-01T15:39:31.367Z,180
2017-09-01T15:40:53.625Z,180
2017-09-01T15:42:15.701Z,180
2017-09-01T15:43:37.464Z,175
2017-09-01T15:44:59.765Z,175
2017-09-01T15:46:22.014Z,180
2017-09-01T15:47:44.778Z,185
2017-09-01T15:49:06.951Z,190
2017-09-01T15:50:29.123Z,190
2017-09-01T15:51:51.771Z,185
2017-09-01T15:53:14.325Z,195
2017-09-01T15:54:36.186Z,205
2017-09-01T15:55:58.353Z,205
2017-09-01T15:57:20.535Z,205
2017-09-01T15:58:43.094Z,205
2017-09-01T16:00:04.955Z,200
2017-09-01T16:01:27.563Z,205
2017-09-01T16:02:49.732Z,215
2017-09-01T16:04:12.257Z,230
2017-09-01T16:05:34.533Z,240
2017-09-01T16:06:56.800Z,240
2017-09-01T16:08:18.629Z,230
2017-09-01T16:09:41.058Z,225
2017-09-01T16:11:03.233Z,225
2017-09-01T16:12:25.202Z,210
2017-09-01T16:13:47.353Z,195
2017-09-01T16:15:09.163Z,175
2017-09-01T16:16:31.346Z,165
2017-09-01T16:17:53.885Z,150
2017-09-01T16:19:16.095Z,135
2017-09-01T16:20:38.600Z,125
2017-09-01T16:22:01.109Z,125
2017-09-01T16:23:23.219Z,120
2017-09-01T16:24:45.584Z,115
2017-09-01T16:26:08.397Z,115
2017-09-01T16:27:30.573Z,115
2017-09-01T16:28:52.116Z,110
2017-09-01T16:30:14.299Z,110
2017-09-01T16:31:36.858Z,110
2017-09-01T16:32:59.362Z,110
2017-09-01T16:34:21.569Z,110
2017-09-01T16:35:43.426Z,105
2017-09-01T16:37:05.964Z,105
2017-09-01T16:38:27.824Z,105
2017-09-01T16:39:50.338Z,105
2017-09-01T16:41:12.603Z,100
2017-09-01T16:42:35.119Z,100
2017-09-01T16:43:57.734Z,100
2017-09-01T16:45:20.251Z,95
2017-09-01T16:46:42.091Z,95
2017-09-01T16:48:04.655Z,95
2017-09-01T16:49:26.536Z,95
2017-09-01T16:50:49.034Z,90
2017-09-01T16:52:10.967Z,90
2017-09-01T16:53:33.816Z,90
2017-09-01T16:54:56.333Z,90
2017-09-01T16:56:18.540Z,90
2017-09-01T16:57:40.712Z,85
2017-09-01T16:59:03.252Z,85
2017-09-01T17:00:25.504Z,85
2017-09-01T17:01:47.721Z,85
2017-09-01T17:03:10.324Z,85
2017-09-01T17:04:32.489Z,85
2017-09-01T17:05:54.062Z,80
2017-09-01T17:07:16.563Z,80
2017-09-01T17:08:38.395Z,80
2017-09-01T17:10:00.839Z,80
2017-09-01T17:11:23.314Z,80
2017-09-01T17:12:45.812Z,80
2017-09-01T17:14:08.323Z,75
2017-09-01T17:15:30.941Z,70
2017-09-01T17:16:52.815Z,65
2017-09-01T17:18:15.092Z,65
2017-09-01T17:19:37.264Z,60
2017-09-01T17:21:00.293Z,60
2017-09-01T17:22:22.553Z,60
2017-09-01T17:23:45.151Z,55
2017-09-01T17:25:06.664Z,50
2017-09-01T17:26:29.112Z,50
2017-09-01T17:27:51.332Z,45
2017-09-01T17:29:13.643Z,45
2017-09-01T17:30:35.802Z,45
2017-09-01T17:31:58.253Z,40
2017-09-01T17:33:20.525Z,40
2017-09-01T17:34:43.013Z,40
2017-09-01T17:36:05.197Z,35
2017-09-01T17:37:27.338Z,35
2017-09-01T17:38:49.853Z,35
2017-09-01T17:40:12.065Z,35
2017-09-01T17:41:34.674Z,30
2017-09-01T17:42:57.527Z,30
2017-09-01T17:44:19.692Z,30
2017-09-01T17:45:41.895Z,25
2017-09-01T17:47:04.394Z,25
2017-09-01T17:48:26.892Z,25
2017-09-01T17:49:48.812Z,25
2017-09-01T17:51:11.096Z,20
2017-09-01T17:52:33.585Z,20
2017-09-01T17:53:56.472Z,20
2017-09-01T17:55:18.653Z,20
2017-09-01T17:56:41.172Z,15
2017-09-01T17:58:03.033Z,15
2017-09-01T17:59:25.903Z,15
2017-09-01T18:00:48.214Z,15
2017-09-01T18:02:10.052Z,15
2017-09-01T18:03:32.552Z,10
2017-09-01T18:04:54.779Z,10
2017-09-01T18:06:17.103Z,10
2017-09-01T18:07:39.623Z,10
2017-09-01T18:09:02.120Z,10
2017-09-01T18:10:24.239Z,5
2017-09-01T18:11:46.754Z,5
2017-09-01T18:13:08.298Z,5
2017-09-01T18:14:30.592Z,5
2017-09-01T18:15:53.626Z,5
2017-09-01T18:17:16.203Z,5
2017-09-01T18:18:38.488Z,5
2017-09-01T18:20:01.025Z,0
2017-09-01T18:21:23.904Z,0
2017-09-01T18:22:46.110Z,0
2017-09-01T18:24:08.293Z,0
2017-09-01T18:25:30.843Z,0
2017-09-01T18:26:53.183Z,0
2017-09-01T18:28:15.402Z,0
2017-09-01T18:29:36.772Z,0
2017-09-01T18:30:58.638Z,0
2017-09-01T18:32:21.650Z,0
2017-09-01T18:33:43.831Z,0
2017-09-01T18:35:05.693Z,0
2017-09-01T18:36:27.599Z,0
2017-09-01T18:37:50.477Z,0
2017-09-01T18:39:13.010Z,0
2017-09-01T18:40:35.545Z,0
2017-09-01T18:41:57.732Z,0
2017-09-01T18:43:20.583Z,0
2017-09-01T18:44:43.094Z,0
2017-09-01T18:46:05.594Z,0
2017-09-01T18:47:28.103Z,0
2017-09-01T18:48:50.973Z,0
2017-09-01T18:50:13.162Z,0
2017-09-01T18:51:35.773Z,0
2017-09-01T18:52:58.102Z,0
2017-09-01T18:54:20.535Z,0
2017-09-01T18:55:43.051Z,0
2017-09-01T18:57:05.532Z,0
2017-09-01T18:58:27.382Z,0
2017-09-01T18:59:50.211Z,0
2017-09-01T19:01:12.077Z,0
2017-09-01T19:02:34.572Z,0
2017-09-01T19:03:56.736Z,0
2017-09-01T19:05:19.632Z,0
2017-09-01T19:06:42.142Z,0
2017-09-01T19:08:04.024Z,0
2017-09-01T19:09:26.216Z,0
2017-09-01T19:10:49.007Z,0
2017-09-01T19:12:11.706Z,0
2017-09-01T19:13:34.206Z,0
2017-09-01T19:14:56.739Z,0
2017-09-01T19:16:19.417Z,0
2017-09-01T19:17:41.934Z,0
2017-09-01T19:19:04.453Z,0
2017-09-01T19:20:26.985Z,0
2017-09-01T19:21:49.922Z,0